createdAt,value
2017-09-10T00:01:12.846Z,90.73
2017-09-10T00:03:41.162Z,91.16
2017-09-10T00:06:09.502Z,91.65
2017-09-10T00:08:37.814Z,92.65
2017-09-10T00:11:06.130Z,92.69
2017-09-10T00:13:34.478Z,92.64
2017-09-10T00:16:02.797Z,91.92
2017-09-10T00:18:31.121Z,91.66
2017-09-10T00:21:00.238Z,91.21
2017-09-10T00:23:28.558Z,91.34
2017-09-10T00:25:56.873Z,91.16
2017-09-10T00:28:25.974Z,92.04
2017-09-10T00:30:55.051Z,92.12
2017-09-10T00:33:23.367Z,91.10
2017-09-10T00:35:51.768Z,91.35
2017-09-10T00:38:20.095Z,91.46
2017-09-10T00:40:48.410Z,91.22
2017-09-10T00:43:16.808Z,91.85
2017-09-10T00:45:45.123Z,92.11
2017-09-10T00:48:13.434Z,92.42
2017-09-10T00:50:42.566Z,92.41
2017-09-10T00:53:10.874Z,91.93
2017-09-10T00:55:39.190Z,90.96
2017-09-10T00:58:08.302Z,90.60
2017-09-10T01:00:36.626Z,89.97
2017-09-10T01:03:04.947Z,88.97
2017-09-10T01:05:34.054Z,88.30
2017-09-10T01:08:03.138Z,87.99
2017-09-10T01:10:31.450Z,87.43
2017-09-10T01:12:59.786Z,86.81
2017-09-10T01:15:28.102Z,87.42
2017-09-10T01:17:56.420Z,87.54
2017-09-10T01:20:24.762Z,88.14
2017-09-10T01:22:53.083Z,89.05
2017-09-10T01:25:21.407Z,89.20
2017-09-10T01:27:49.751Z,89.61
2017-09-10T01:30:18.066Z,89.45
2017-09-10T01:32:46.385Z,89.23
2017-09-10T01:35:14.728Z,89.39
2017-09-10T01:37:43.045Z,89.33
2017-09-10T01:40:11.358Z,89.23
2017-09-10T01:42:39.697Z,89.53
2017-09-10T01:45:08.010Z,88.81
2017-09-10T01:47:36.325Z,88.73
2017-09-10T01:50:04.679Z,88.66
2017-09-10T01:52:33.812Z,88.84
2017-09-10T01:55:02.132Z,89.10
2017-09-10T01:57:30.478Z,89.48
2017-09-10T01:59:58.798Z,89.12
2017-09-10T02:02:27.115Z,88.78
2017-09-10T02:04:56.218Z,88.43
2017-09-10T02:07:25.416Z,89.00
2017-09-10T02:09:53.725Z,89.66
2017-09-10T02:12:22.066Z,89.88
2017-09-10T02:14:51.145Z,90.50
2017-09-10T02:17:19.462Z,90.08
2017-09-10T02:19:47.798Z,89.74
2017-09-10T02:22:16.140Z,90.26
2017-09-10T02:24:44.447Z,90.76
2017-09-10T02:27:12.795Z,90.62
2017-09-10T02:29:41.116Z,90.89
2017-09-10T02:32:09.430Z,90.21
2017-09-10T02:34:38.541Z,89.75
2017-09-10T02:37:06.862Z,89.26
2017-09-10T02:39:35.198Z,88.86
2017-09-10T02:42:03.550Z,88.86
2017-09-10T02:44:32.630Z,89.03
2017-09-10T02:47:00.950Z,89.16
2017-09-10T02:49:29.290Z,89.83
2017-09-10T02:51:57.605Z,89.12
2017-09-10T02:54:25.919Z,88.92
2017-09-10T02:56:54.264Z,88.63
2017-09-10T02:59:23.342Z,88.80
2017-09-10T03:01:52.418Z,88.16
2017-09-10T03:04:20.762Z,88.28
2017-09-10T03:06:49.074Z,88.34
2017-09-10T03:09:17.386Z,88.10
2017-09-10T03:11:46.491Z,88.14
2017-09-10T03:14:15.567Z,87.80
2017-09-10T03:16:43.878Z,88.22
2017-09-10T03:19:12.986Z,88.52
2017-09-10T03:21:41.307Z,88.70
2017-09-10T03:24:09.622Z,88.81
2017-09-10T03:26:38.722Z,88.62
2017-09-10T03:29:07.803Z,89.12
2017-09-10T03:31:36.878Z,88.98
2017-09-10T03:34:05.228Z,89.50
2017-09-10T03:36:33.550Z,89.88
2017-09-10T03:39:02.294Z,89.43
2017-09-10T03:41:30.629Z,89.30
2017-09-10T03:43:58.941Z,89.13
2017-09-10T03:46:27.254Z,88.92
2017-09-10T03:48:55.586Z,88.74
2017-09-10T03:51:24.663Z,88.25
2017-09-10T03:53:53.746Z,88.66
2017-09-10T03:56:22.088Z,87.89
2017-09-10T03:58:50.401Z,87.45
2017-09-10T04:01:18.711Z,87.33
2017-09-10T04:03:47.847Z,87.40
2017-09-10T04:06:16.155Z,86.72
2017-09-10T04:08:44.465Z,86.81
2017-09-10T04:11:13.569Z,86.94
2017-09-10T04:13:42.654Z,87.21
2017-09-10T04:16:11.734Z,87.41
2017-09-10T04:18:40.078Z,89.25
2017-09-10T04:21:08.386Z,89.71
2017-09-10T04:23:36.702Z,89.83
2017-09-10T04:26:05.806Z,89.67
2017-09-10T04:28:34.877Z,89.71
2017-09-10T04:31:03.190Z,90.27
2017-09-10T04:33:32.307Z,90.49
2017-09-10T04:36:00.619Z,90.93
2017-09-10T04:38:28.976Z,90.11
2017-09-10T04:40:57.318Z,89.88
2017-09-10T04:43:25.637Z,89.94
2017-09-10T04:45:53.941Z,89.88
2017-09-10T04:48:22.283Z,90.15
2017-09-10T04:50:50.594Z,90.21
2017-09-10T04:53:18.917Z,89.32
2017-09-10T04:55:47.250Z,89.41
2017-09-10T04:58:15.558Z,89.93
2017-09-10T05:00:44.639Z,90.23
2017-09-10T05:03:13.741Z,90.09
2017-09-10T05:05:42.054Z,91.41
2017-09-10T05:08:10.361Z,91.74
2017-09-10T05:10:38.700Z,92.47
2017-09-10T05:13:07.783Z,92.42
2017-09-10T05:15:36.091Z,92.35
2017-09-10T05:18:05.194Z,91.85
2017-09-10T05:20:33.511Z,92.71
2017-09-10T05:23:01.819Z,92.20
2017-09-10T05:25:30.162Z,92.08
2017-09-10T05:27:58.478Z,91.91
2017-09-10T05:30:26.795Z,92.65
2017-09-10T05:32:55.129Z,92.25
2017-09-10T05:35:23.441Z,93.08
2017-09-10T05:37:52.570Z,92.07
2017-09-10T05:40:20.912Z,92.16
2017-09-10T05:42:49.230Z,91.56
2017-09-10T05:45:17.542Z,92.49
2017-09-10T05:47:45.894Z,93.24
2017-09-10T05:50:14.198Z,92.78
2017-09-10T05:52:42.505Z,92.23
2017-09-10T05:55:11.606Z,91.51
2017-09-10T05:57:39.918Z,90.56
2017-09-10T06:00:08.235Z,90.24
2017-09-10T06:02:36.582Z,89.87
2017-09-10T06:05:04.895Z,88.43
2017-09-10T06:07:33.206Z,87.58
2017-09-10T06:10:02.310Z,87.00
2017-09-10T06:12:30.618Z,87.20
2017-09-10T06:14:58.930Z,87.11
2017-09-10T06:17:27.275Z,86.51
2017-09-10T06:19:55.592Z,87.73
2017-09-10T06:22:23.906Z,86.72
2017-09-10T06:24:55.254Z,86.60
2017-09-10T06:27:23.606Z,86.71
2017-09-10T06:29:51.922Z,86.22
2017-09-10T06:32:20.262Z,86.27
2017-09-10T06:34:48.579Z,86.51
2017-09-10T06:37:16.895Z,86.78
2017-09-10T06:39:45.253Z,86.44
2017-09-10T06:42:13.571Z,86.67
2017-09-10T06:44:42.028Z,85.94
2017-09-10T06:47:10.373Z,85.82
2017-09-10T06:49:39.451Z,83.18
2017-09-10T06:52:07.762Z,85.85
2017-09-10T06:54:36.098Z,86.10
2017-09-10T06:57:04.411Z,88.38
2017-09-10T06:59:33.491Z,87.94
2017-09-10T07:02:01.854Z,87.24
2017-09-10T07:04:30.170Z,86.45
2017-09-10T07:06:59.308Z,86.14
2017-09-10T07:09:27.658Z,86.28
2017-09-10T07:11:55.971Z,86.37
2017-09-10T07:14:24.291Z,86.83
2017-09-10T07:16:52.636Z,85.96
2017-09-10T07:19:20.950Z,87.09
2017-09-10T07:21:50.046Z,87.17
2017-09-10T07:24:18.390Z,86.63
2017-09-10T07:26:46.702Z,86.99
2017-09-10T07:29:15.020Z,87.05
2017-09-10T07:31:43.358Z,86.47
2017-09-10T07:34:11.682Z,86.64
2017-09-10T07:36:39.994Z,87.17
2017-09-10T07:39:08.330Z,87.10
2017-09-10T07:41:37.407Z,86.96
2017-09-10T07:44:05.730Z,85.61
2017-09-10T07:46:34.071Z,85.07
2017-09-10T07:49:03.151Z,84.39
2017-09-10T07:51:31.471Z,84.02
2017-09-10T07:53:59.806Z,83.06
2017-09-10T07:56:28.121Z,82.97
2017-09-10T07:58:56.442Z,82.23
2017-09-10T08:01:24.793Z,80.24
2017-09-10T08:03:53.110Z,82.43
2017-09-10T08:06:21.427Z,80.62
2017-09-10T08:08:49.767Z,80.65
2017-09-10T08:11:18.078Z,80.64
2017-09-10T08:13:47.158Z,79.31
2017-09-10T08:16:15.511Z,79.34
2017-09-10T08:18:43.841Z,80.27
2017-09-10T08:21:12.930Z,79.18
2017-09-10T08:26:00.587Z,79.60
2017-09-10T08:28:29.682Z,79.50
2017-09-10T08:30:58.006Z,78.58
2017-09-10T08:33:26.342Z,78.36
2017-09-10T08:35:55.418Z,77.48
2017-09-10T08:38:23.729Z,78.72
2017-09-10T08:40:52.068Z,76.91
2017-09-10T08:43:20.382Z,77.60
2017-09-10T08:45:49.462Z,77.91
2017-09-10T08:48:17.799Z,78.09
2017-09-10T08:50:46.114Z,78.23
2017-09-10T08:53:14.425Z,77.73
2017-09-10T08:55:43.526Z,79.17
2017-09-10T08:58:12.623Z,78.50
2017-09-10T09:00:41.702Z,77.98
2017-09-10T09:03:10.811Z,77.55
2017-09-10T09:05:39.892Z,77.57
2017-09-10T09:08:08.203Z,77.29
2017-09-10T09:10:36.554Z,76.40
2017-09-10T09:13:04.866Z,76.60
2017-09-10T09:15:33.182Z,78.06
2017-09-10T09:18:01.521Z,78.31
2017-09-10T09:20:29.850Z,78.63
2017-09-10T09:22:58.388Z,78.82
2017-09-10T09:25:27.299Z,79.04
2017-09-10T09:27:55.614Z,79.70
2017-09-10T09:30:23.943Z,79.57
2017-09-10T09:32:52.289Z,78.70
2017-09-10T09:35:20.599Z,77.28
2017-09-10T09:37:48.923Z,77.76
2017-09-10T09:40:17.262Z,76.46
2017-09-10T09:42:45.580Z,75.67
2017-09-10T09:45:13.894Z,77.13
2017-09-10T09:47:43.006Z,74.88
2017-09-10T09:50:11.323Z,73.30
2017-09-10T09:52:39.638Z,75.20
2017-09-10T09:55:07.976Z,73.98
2017-09-10T09:57:36.283Z,74.49
2017-09-10T10:00:04.598Z,74.01
2017-09-10T10:02:32.942Z,73.98
2017-09-10T10:05:01.262Z,74.06
2017-09-10T10:07:29.574Z,73.09
2017-09-10T10:09:57.938Z,71.73
2017-09-10T10:12:26.247Z,70.89
2017-09-10T10:14:54.567Z,70.93
2017-09-10T10:17:23.678Z,70.80
2017-09-10T10:19:51.994Z,69.43
2017-09-10T10:22:20.306Z,69.67
2017-09-10T10:24:48.645Z,70.13
2017-09-10T10:27:16.963Z,68.90
2017-09-10T10:29:45.278Z,70.74
2017-09-10T10:32:14.404Z,69.51
2017-09-10T10:34:42.718Z,70.16
2017-09-10T10:37:11.026Z,70.41
2017-09-10T10:39:40.129Z,69.27
2017-09-10T10:42:09.215Z,68.67
2017-09-10T10:44:38.302Z,68.75
2017-09-10T10:47:06.645Z,69.08
2017-09-10T10:49:34.958Z,69.16
2017-09-10T10:52:03.274Z,69.83
2017-09-10T10:54:32.378Z,68.73
2017-09-10T10:57:00.690Z,69.71
2017-09-10T10:59:29.053Z,69.30
2017-09-10T11:01:57.397Z,69.08
2017-09-10T11:04:26.485Z,68.94
2017-09-10T11:06:55.566Z,69.80
2017-09-10T11:09:23.906Z,68.16
2017-09-10T11:11:52.218Z,67.83
2017-09-10T11:14:20.530Z,68.76
2017-09-10T11:16:49.633Z,68.90
2017-09-10T11:19:18.711Z,67.21
2017-09-10T11:21:47.027Z,66.41
2017-09-10T11:24:15.373Z,68.07
2017-09-10T11:26:44.453Z,66.69
2017-09-10T11:29:12.764Z,66.69
2017-09-10T11:31:41.875Z,64.45
2017-09-10T11:34:10.198Z,64.57
2017-09-10T11:36:38.519Z,64.71
2017-09-10T11:39:07.630Z,64.71
2017-09-10T11:41:36.710Z,62.27
2017-09-10T11:44:05.030Z,64.18
2017-09-10T11:46:33.371Z,64.41
2017-09-10T11:49:02.453Z,66.60
2017-09-10T11:51:30.780Z,68.03
2017-09-10T11:53:59.114Z,67.78
2017-09-10T11:56:27.426Z,68.30
2017-09-10T11:58:55.751Z,66.11
2017-09-10T12:01:24.855Z,65.93
2017-09-10T12:03:53.173Z,68.19
2017-09-10T12:06:22.249Z,68.22
2017-09-10T12:08:50.586Z,67.79
2017-09-10T12:11:18.906Z,66.85
2017-09-10T12:13:47.222Z,66.78
2017-09-10T12:16:15.567Z,65.18
2017-09-10T12:18:43.883Z,63.38
2017-09-10T12:21:12.198Z,62.61
2017-09-10T12:23:40.562Z,62.94
2017-09-10T12:26:08.870Z,62.29
2017-09-10T12:28:37.190Z,61.63
2017-09-10T12:31:06.293Z,62.00
2017-09-10T12:33:34.602Z,61.22
2017-09-10T12:36:02.951Z,57.48
2017-09-10T12:38:31.300Z,59.94
2017-09-10T12:40:59.610Z,61.30
2017-09-10T12:43:28.690Z,61.43
2017-09-10T12:45:57.031Z,61.94
2017-09-10T12:48:25.355Z,63.85
2017-09-10T12:50:54.435Z,62.29
2017-09-10T12:53:22.779Z,63.09
2017-09-10T12:55:51.094Z,60.35
2017-09-10T12:58:19.418Z,61.41
2017-09-10T13:00:47.808Z,63.00
2017-09-10T13:03:16.123Z,61.62
2017-09-10T13:05:45.337Z,60.59
2017-09-10T13:08:13.694Z,60.85
2017-09-10T13:10:42.002Z,58.56
2017-09-10T13:13:10.323Z,59.41
2017-09-10T13:15:38.696Z,58.50
2017-09-10T13:18:07.047Z,58.39
2017-09-10T13:20:35.363Z,56.68
2017-09-10T13:23:03.739Z,56.34
2017-09-10T13:25:32.053Z,53.36
2017-09-10T13:28:00.366Z,52.04
2017-09-10T13:30:29.471Z,52.10
2017-09-10T13:32:57.782Z,50.27
2017-09-10T13:35:26.094Z,51.03
2017-09-10T13:37:54.440Z,51.46
2017-09-10T13:40:22.759Z,53.54
2017-09-10T13:42:51.070Z,52.37
2017-09-10T13:45:20.174Z,54.84
2017-09-10T13:47:49.249Z,55.87
2017-09-10T13:50:17.572Z,52.92
2017-09-10T13:52:45.906Z,49.35
2017-09-10T13:55:14.222Z,49.28
2017-09-10T13:57:42.545Z,48.65
2017-09-10T14:00:11.242Z,48.67
2017-09-10T14:02:39.558Z,45.81
2017-09-10T14:05:07.871Z,47.74
2017-09-10T14:07:36.215Z,47.20
2017-09-10T14:10:04.525Z,48.17
2017-09-10T14:12:32.838Z,49.37
2017-09-10T14:15:01.182Z,53.51
2017-09-10T14:17:29.494Z,55.51
2017-09-10T14:19:57.798Z,54.43
2017-09-10T14:22:26.902Z,55.25
2017-09-10T14:24:55.985Z,55.81
2017-09-10T14:27:24.302Z,58.47
2017-09-10T14:29:52.642Z,57.60
2017-09-10T14:32:20.954Z,59.07
2017-09-10T14:34:49.262Z,58.70
2017-09-10T14:37:17.615Z,60.21
2017-09-10T14:39:45.930Z,59.41
2017-09-10T14:42:14.250Z,59.37
2017-09-10T14:44:43.360Z,57.40
2017-09-10T14:47:12.438Z,54.02
2017-09-10T14:49:41.527Z,56.70
2017-09-10T14:52:09.877Z,58.64
2017-09-10T14:54:38.196Z,58.27
2017-09-10T14:57:07.310Z,56.01
2017-09-10T14:59:36.388Z,54.38
2017-09-10T15:02:04.701Z,52.44
2017-09-10T15:04:33.038Z,50.01
2017-09-10T15:07:01.378Z,49.75
2017-09-10T15:09:29.798Z,53.01
2017-09-10T15:11:58.109Z,55.63
2017-09-10T15:14:27.194Z,57.18
2017-09-10T15:16:55.546Z,57.69
2017-09-10T15:19:23.862Z,58.00
2017-09-10T15:21:52.176Z,59.69
2017-09-10T15:24:20.507Z,58.70
2017-09-10T15:26:48.824Z,60.67
2017-09-10T15:29:17.163Z,59.42
2017-09-10T15:31:45.503Z,60.20
2017-09-10T15:34:13.838Z,59.06
2017-09-10T15:36:42.941Z,57.15
2017-09-10T15:39:11.258Z,57.00
2017-09-10T15:41:39.606Z,58.26
2017-09-10T15:44:08.687Z,60.21
2017-09-10T15:46:37.770Z,61.39
2017-09-10T15:49:06.116Z,61.12
2017-09-10T15:51:34.442Z,60.45
2017-09-10T15:54:03.230Z,60.72
2017-09-10T15:56:31.573Z,59.96
2017-09-10T15:58:59.885Z,60.68
2017-09-10T16:01:28.194Z,60.62
2017-09-10T16:03:56.534Z,59.24
2017-09-10T16:06:24.853Z,58.32
2017-09-10T16:08:53.199Z,58.64
2017-09-10T16:11:21.510Z,58.00
2017-09-10T16:13:49.917Z,57.50
2017-09-10T16:16:18.254Z,58.21
2017-09-10T16:18:46.573Z,59.85
2017-09-10T16:21:14.910Z,61.56
2017-09-10T16:23:43.218Z,62.78
2017-09-10T16:26:11.595Z,63.59
2017-09-10T16:28:39.938Z,64.14
2017-09-10T16:31:08.254Z,65.08
2017-09-10T16:33:36.583Z,63.79
2017-09-10T16:36:04.936Z,65.29
2017-09-10T16:38:33.267Z,65.44
2017-09-10T16:41:01.582Z,66.33
2017-09-10T16:43:29.919Z,66.84
2017-09-10T16:45:58.230Z,67.65
2017-09-10T16:48:27.310Z,67.30
2017-09-10T16:50:55.650Z,67.80
2017-09-10T16:53:23.979Z,67.10
2017-09-10T16:55:53.058Z,67.16
2017-09-10T16:58:21.399Z,64.18
2017-09-10T17:00:49.715Z,61.73
2017-09-10T17:03:18.130Z,59.82
2017-09-10T17:05:46.438Z,60.48
2017-09-10T17:08:14.810Z,61.15
2017-09-10T17:10:43.192Z,62.35
2017-09-10T17:13:11.508Z,64.21
2017-09-10T17:15:39.848Z,66.45
2017-09-10T17:18:08.166Z,67.52
2017-09-10T17:20:36.478Z,67.78
2017-09-10T17:23:05.587Z,69.10
2017-09-10T17:25:33.910Z,69.21
2017-09-10T17:28:02.220Z,70.09
2017-09-10T17:30:31.326Z,70.57
2017-09-10T17:32:59.639Z,71.08
2017-09-10T17:35:27.987Z,70.49
2017-09-10T17:37:56.314Z,70.83
2017-09-10T17:40:24.627Z,70.78
2017-09-10T17:42:52.942Z,69.65
2017-09-10T17:45:21.274Z,69.57
2017-09-10T17:47:49.589Z,69.51
2017-09-10T17:50:17.898Z,69.92
2017-09-10T17:52:46.306Z,69.15
2017-09-10T17:55:14.639Z,69.87
2017-09-10T17:57:42.964Z,69.74
2017-09-10T18:00:11.303Z,70.45
2017-09-10T18:02:39.618Z,70.42
2017-09-10T18:05:08.700Z,70.58
2017-09-10T18:07:37.045Z,70.91
2017-09-10T18:10:05.366Z,70.70
2017-09-10T18:12:33.673Z,70.32
2017-09-10T18:15:02.016Z,70.79
2017-09-10T18:17:30.329Z,71.21
2017-09-10T18:19:58.647Z,71.65
2017-09-10T18:22:27.754Z,71.43
2017-09-10T18:24:56.066Z,71.67
2017-09-10T18:27:24.378Z,72.15
2017-09-10T18:29:52.718Z,71.67
2017-09-10T18:32:21.031Z,72.59
2017-09-10T18:34:49.379Z,72.42
2017-09-10T18:37:17.690Z,72.92
2017-09-10T18:39:46.002Z,72.68
2017-09-10T18:42:14.344Z,73.37
2017-09-10T18:44:42.662Z,73.71
2017-09-10T18:47:11.782Z,74.41
2017-09-10T18:49:40.095Z,74.40
2017-09-10T18:52:08.443Z,74.19
2017-09-10T18:54:36.758Z,74.02
2017-09-10T18:57:05.071Z,73.60
2017-09-10T18:59:34.187Z,73.70
2017-09-10T19:02:02.528Z,73.96
2017-09-10T19:04:30.854Z,74.02
2017-09-10T19:06:59.174Z,74.28
2017-09-10T19:09:27.517Z,75.49
2017-09-10T19:11:55.834Z,75.89
2017-09-10T19:14:24.149Z,76.63
2017-09-10T19:16:53.255Z,76.49
2017-09-10T19:19:21.602Z,76.23
2017-09-10T19:21:49.918Z,75.80
2017-09-10T19:24:18.254Z,76.37
2017-09-10T19:26:46.599Z,76.30
2017-09-10T19:29:14.968Z,76.91
2017-09-10T19:31:43.327Z,76.86
2017-09-10T19:34:12.431Z,77.87
2017-09-10T19:36:41.560Z,77.37
2017-09-10T19:39:09.875Z,78.72
2017-09-10T19:41:38.188Z,79.12
2017-09-10T19:44:07.299Z,78.99
2017-09-10T19:46:35.620Z,80.75
2017-09-10T19:49:03.945Z,80.73
2017-09-10T19:51:33.057Z,80.02
2017-09-10T19:54:01.375Z,81.96
2017-09-10T19:56:29.734Z,81.36
2017-09-10T19:58:58.058Z,81.53
2017-09-10T20:01:27.163Z,81.88
2017-09-10T20:03:56.278Z,82.21
2017-09-10T20:06:24.596Z,81.97
2017-09-10T20:08:52.906Z,82.20
2017-09-10T20:11:21.380Z,82.87
2017-09-10T20:13:49.725Z,83.10
2017-09-10T20:16:18.071Z,83.91
2017-09-10T20:18:47.186Z,83.75
2017-09-10T20:21:15.506Z,82.88
2017-09-10T20:23:43.829Z,82.97
2017-09-10T20:26:12.943Z,84.22
2017-09-10T20:28:41.284Z,83.69
2017-09-10T20:31:09.598Z,83.17
2017-09-10T20:33:37.940Z,83.20
2017-09-10T20:36:06.278Z,83.33
2017-09-10T20:38:34.594Z,83.82
2017-09-10T20:41:03.776Z,83.79
2017-09-10T20:43:33.004Z,83.43
2017-09-10T20:46:01.322Z,83.11
2017-09-10T20:48:30.435Z,83.59
2017-09-10T20:50:58.755Z,83.27
2017-09-10T20:53:27.073Z,83.03
2017-09-10T20:55:56.182Z,83.02
2017-09-10T20:58:24.514Z,82.86
2017-09-10T21:00:52.862Z,82.25
2017-09-10T21:03:21.202Z,81.82
2017-09-10T21:05:50.283Z,81.76
2017-09-10T21:08:18.613Z,81.68
2017-09-10T21:10:46.950Z,82.10
2017-09-10T21:13:16.037Z,82.01
2017-09-10T21:15:44.353Z,82.40
2017-09-10T21:18:14.222Z,82.42
2017-09-10T21:20:44.231Z,82.61
2017-09-10T21:23:13.362Z,83.08
2017-09-10T21:25:42.579Z,83.06
2017-09-10T21:28:10.902Z,83.61
2017-09-10T21:30:39.245Z,83.36
2017-09-10T21:33:07.562Z,83.06
2017-09-10T21:35:35.899Z,83.28
2017-09-10T21:38:04.974Z,83.12
2017-09-10T21:40:34.050Z,83.03
2017-09-10T21:43:02.400Z,82.81
2017-09-10T21:45:30.731Z,83.17
2017-09-10T21:47:59.062Z,83.04
2017-09-10T21:50:27.380Z,83.20
2017-09-10T21:52:55.699Z,83.12
2017-09-10T21:55:24.047Z,82.48
2017-09-10T21:57:52.373Z,82.33
2017-09-10T22:00:20.682Z,82.21
2017-09-10T22:02:49.026Z,82.35
2017-09-10T22:05:17.338Z,82.60
2017-09-10T22:07:45.652Z,82.76
2017-09-10T22:10:14.758Z,82.61
2017-09-10T22:12:43.838Z,83.26
2017-09-10T22:15:12.152Z,83.22
2017-09-10T22:17:40.497Z,82.93
2017-09-10T22:20:08.813Z,83.28
2017-09-10T22:22:37.124Z,82.60
2017-09-10T22:25:05.462Z,82.81
2017-09-10T22:27:33.774Z,82.46
2017-09-10T22:30:02.079Z,82.45
2017-09-10T22:32:30.424Z,82.47
2017-09-10T22:34:58.729Z,83.47
2017-09-10T22:37:27.070Z,83.16
2017-09-10T22:39:55.436Z,83.72
2017-09-10T22:42:24.514Z,83.50
2017-09-10T22:44:52.851Z,83.60
2017-09-10T22:47:21.163Z,83.52
2017-09-10T22:49:49.503Z,83.55
2017-09-10T22:52:17.810Z,84.54
2017-09-10T22:54:46.163Z,84.41
2017-09-10T22:57:14.479Z,84.86
2017-09-10T22:59:42.790Z,84.45
2017-09-10T23:02:11.886Z,84.36
2017-09-10T23:04:40.982Z,84.06
2017-09-10T23:07:10.090Z,84.40
2017-09-10T23:09:39.171Z,84.92
2017-09-10T23:12:07.490Z,84.21
2017-09-10T23:14:35.825Z,83.69
2017-09-10T23:17:04.144Z,83.74
2017-09-10T23:19:32.486Z,83.68
2017-09-10T23:22:01.566Z,82.90
2017-09-10T23:24:29.876Z,83.42
2017-09-10T23:26:58.982Z,82.38
2017-09-10T23:29:28.059Z,82.95
2017-09-10T23:31:57.170Z,82.48
2017-09-10T23:34:26.250Z,82.22
2017-09-10T23:36:55.335Z,82.56
2017-09-10T23:39:23.682Z,82.50
2017-09-10T23:41:51.998Z,83.08
2017-09-10T23:44:20.314Z,84.26
2017-09-10T23:46:48.655Z,83.50
2017-09-10T23:49:16.970Z,83.87
2017-09-10T23:51:46.054Z,84.03
2017-09-10T23:54:15.163Z,84.08
2017-09-10T23:56:44.246Z,84.13
2017-09-10T23:59:13.350Z,83.64
